Huvudsida
METAR-TAF:

METAR-TAF

Flygplatser :

London-Heathrow flygplats

London-Heathrow, England

latitud: 51-29N, longitud: 000-27W, höjd: 24 m

Aktuellt väderrapport

Denna rapport gjordes för 33 minuter sedan, klockan 20:20 UTC
Vind 12 kt från väst/sydväst
Temperatur 6°C
Fuktighet 75%
Tryck 1002 hPa
Sikt 10 km eller mer

METAR: EGLL 112020Z AUTO 24012KT 9999 NCD 06/02 Q1002

Tid: 20:53 (20:53 UTC)

Väderprognos

Denna rapport gjordes för 3 timmar och 57 minuter sedan, klockan 16:56 UTC
Prognos gäller från 11 kl. 18 UTC till 12 kl. 24 UTC
Vind 10 kt från väst
Sikt 10 km eller mer
Få moln på en höjd av 3500 ft
Temporärt
från 12 kl. 09 UTC till 12 kl. 18 UTC
Vind 18 kt från väst i byarna ända upp till 28 kt
Sannolikhet 40% :
Temporärt
från 12 kl. 11 UTC till 12 kl. 18 UTC
Sikt: 7000 m
Brutna moln på en höjd av 1400 ft
regn

TAF: EGLL 111656Z 1118/1224 26010KT 9999 FEW035 TEMPO 1209/1218 27018G28KT PROB40 TEMPO 1211/1218 7000 RA BKN014

Aktuella väderrapporter och prognoser från 4000 flygplatser (METAR- och TAF-rapporter).

De tillgängliga stationerna syns som gula och röda prickar på kartan.

För musen över prickarna för att se namnen på stationerna.

Klicka sedan för att få väderrapporter och prognoser.

För att ändra kartan: Klicka på de gröna knapparna med ett svart kors på för att zooma in; den gröna knappen med ett streck på för att zooma ut; eller på de gröna pilarna för angränsande kartor.


METAR-TAF: